Time;durP1;ratioP1;P1;durP2;ratioP2;P2;SDS_P1;SDS_P2;PMS_P1;PMS_P2;Temp;Humidity;BMP_temperature;BMP_pressure;BME280_temperature;BME280_humidity;BME280_pressure;Samples;Min_cycle;Max_cycle;Signal;HPM_P1;HPM_P2
2022/03/24 00:00:00;;;;;;;33.17;13.40;;;8.10;49.30;;;;;;5064719;27;22097;-74
2022/03/24 00:02:27;;;;;;;37.08;13.38;;;8.00;49.20;;;;;;5055540;27;20040;-74
2022/03/24 00:04:54;;;;;;;39.17;13.65;;;8.10;49.30;;;;;;5079730;27;20047;-75
2022/03/24 00:07:22;;;;;;;38.88;13.38;;;8.20;48.90;;;;;;5066837;27;22274;-74
2022/03/24 00:09:49;;;;;;;35.20;13.77;;;8.30;48.80;;;;;;5069284;27;20074;-74
2022/03/24 00:12:16;;;;;;;39.55;14.18;;;8.00;49.20;;;;;;5052542;27;20541;-75
2022/03/24 00:14:44;;;;;;;42.63;14.15;;;7.90;49.80;;;;;;5064441;27;20075;-74
2022/03/24 00:17:11;;;;;;;38.85;14.00;;;7.90;49.70;;;;;;5072162;27;20054;-75
2022/03/24 00:19:38;;;;;;;40.35;14.70;;;8.00;49.70;;;;;;5046926;27;20047;-74
2022/03/24 00:22:05;;;;;;;54.60;16.33;;;8.00;50.40;;;;;;5084258;27;20039;-74
2022/03/24 00:24:32;;;;;;;46.30;16.50;;;7.90;49.80;;;;;;5063281;27;20055;-74
2022/03/24 00:26:59;;;;;;;42.65;14.60;;;8.20;49.50;;;;;;5083830;27;22471;-74
2022/03/24 00:29:26;;;;;;;34.70;13.23;;;8.00;49.70;;;;;;5066968;28;20055;-75
2022/03/24 00:31:53;;;;;;;36.20;14.00;;;7.80;50.30;;;;;;5066196;28;20193;-75
2022/03/24 00:34:20;;;;;;;41.78;13.98;;;7.70;50.60;;;;;;5083372;27;20852;-74
2022/03/24 00:36:47;;;;;;;38.45;13.55;;;7.70;50.60;;;;;;5055527;27;20051;-74
2022/03/24 00:39:14;;;;;;;36.08;13.55;;;7.80;50.20;;;;;;5049831;27;20430;-75
2022/03/24 00:41:43;;;;;;;36.97;13.00;;;7.70;50.80;;;;;;5072405;27;20528;-74
2022/03/24 00:44:11;;;;;;;37.47;14.15;;;7.70;50.30;;;;;;5062119;28;20060;-75
2022/03/24 00:46:38;;;;;;;35.85;12.35;;;7.80;50.10;;;;;;5061600;28;20168;-74
2022/03/24 00:49:06;;;;;;;30.23;11.65;;;7.70;50.30;;;;;;5059513;28;20051;-74
2022/03/24 00:51:33;;;;;;;36.28;12.75;;;7.60;49.60;;;;;;5049322;28;20043;-74
2022/03/24 00:54:01;;;;;;;28.08;11.70;;;7.80;49.50;;;;;;5061681;27;20043;-74
2022/03/24 00:56:28;;;;;;;32.70;11.00;;;7.70;49.20;;;;;;5047289;28;21156;-74
2022/03/24 00:58:55;;;;;;;33.55;11.27;;;7.50;49.70;;;;;;5060344;28;22909;-74
2022/03/24 01:01:22;;;;;;;30.35;11.05;;;7.60;49.70;;;;;;5061589;28;20827;-74
2022/03/24 01:03:49;;;;;;;36.97;11.80;;;7.30;50.60;;;;;;5053434;28;20074;-74
2022/03/24 01:06:17;;;;;;;33.33;11.38;;;7.20;50.70;;;;;;5044691;28;20164;-74
2022/03/24 01:08:44;;;;;;;31.83;10.70;;;7.30;50.30;;;;;;5051402;28;20051;-74
2022/03/24 01:11:13;;;;;;;31.33;11.90;;;7.40;50.60;;;;;;5063558;28;20189;-74
2022/03/24 01:13:41;;;;;;;29.42;11.15;;;7.50;50.20;;;;;;5053258;28;20051;-74
2022/03/24 01:16:11;;;;;;;27.40;10.77;;;7.50;50.00;;;;;;5045398;28;22470;-74
2022/03/24 01:18:39;;;;;;;29.50;11.05;;;7.50;50.00;;;;;;5051111;28;20055;-74
2022/03/24 01:21:07;;;;;;;27.85;10.38;;;7.30;51.30;;;;;;5062379;28;20044;-74
2022/03/24 01:23:35;;;;;;;27.55;9.40;;;7.20;51.10;;;;;;5060137;28;20044;-74
2022/03/24 01:26:05;;;;;;;29.55;9.80;;;7.30;50.80;;;;;;5063002;28;20933;-74
2022/03/24 01:28:33;;;;;;;28.85;9.85;;;7.30;50.70;;;;;;5053183;28;20887;-74
2022/03/24 01:31:00;;;;;;;37.38;11.15;;;7.40;50.50;;;;;;5063000;28;20056;-74
2022/03/24 01:33:28;;;;;;;30.00;9.48;;;7.30;50.30;;;;;;5064482;28;20143;-74
2022/03/24 01:35:55;;;;;;;26.95;10.20;;;7.20;50.50;;;;;;5062964;28;20048;-75
2022/03/24 01:38:23;;;;;;;36.55;10.23;;;7.20;50.30;;;;;;5060464;28;20820;-74
2022/03/24 01:40:51;;;;;;;44.05;11.98;;;7.20;50.00;;;;;;5069222;28;20050;-74
2022/03/24 01:43:21;;;;;;;25.83;10.75;;;6.80;51.20;;;;;;5053056;28;20595;-74
2022/03/24 01:45:50;;;;;;;29.90;9.55;;;6.90;51.60;;;;;;5082635;28;22732;-75
2022/03/24 01:48:17;;;;;;;34.78;11.05;;;6.90;51.40;;;;;;5065979;28;20414;-74
2022/03/24 01:50:45;;;;;;;29.83;9.95;;;6.40;51.20;;;;;;5062676;28;20059;-74
2022/03/24 01:53:12;;;;;;;26.80;10.77;;;6.30;51.60;;;;;;5063596;28;20074;-74
2022/03/24 01:55:41;;;;;;;29.88;10.25;;;6.40;52.00;;;;;;5065686;28;21345;-74
2022/03/24 01:58:09;;;;;;;25.65;9.77;;;6.70;51.40;;;;;;5048497;28;20048;-74
2022/03/24 02:00:36;;;;;;;27.05;9.13;;;6.70;51.10;;;;;;5066619;28;20082;-75
2022/03/24 02:03:05;;;;;;;28.98;10.50;;;6.60;51.60;;;;;;5054496;28;20043;-74
2022/03/24 02:05:34;;;;;;;28.02;10.55;;;6.70;50.90;;;;;;5063887;28;20052;-74
2022/03/24 02:08:03;;;;;;;27.95;10.45;;;6.90;50.70;;;;;;5075792;27;20409;-74
2022/03/24 02:10:35;;;;;;;28.00;9.68;;;6.80;50.60;;;;;;5060211;27;20255;-74
2022/03/24 02:13:04;;;;;;;29.02;9.27;;;6.90;50.50;;;;;;5069498;27;20075;-74
2022/03/24 02:15:32;;;;;;;34.50;11.00;;;6.80;50.80;;;;;;5069278;27;20549;-74
2022/03/24 02:17:59;;;;;;;29.27;10.25;;;6.80;50.60;;;;;;5068453;27;20062;-74
2022/03/24 02:20:28;;;;;;;29.88;10.05;;;6.60;51.20;;;;;;5064632;27;20093;-74
2022/03/24 02:22:55;;;;;;;31.83;11.63;;;6.70;50.90;;;;;;5070789;27;20054;-74
2022/03/24 02:25:24;;;;;;;31.23;10.05;;;6.50;51.30;;;;;;5067577;27;20363;-74
2022/03/24 02:27:52;;;;;;;26.08;9.85;;;6.60;51.20;;;;;;5069710;27;20070;-74
2022/03/24 02:30:20;;;;;;;28.02;10.25;;;6.70;51.00;;;;;;5068550;27;20075;-74
2022/03/24 02:32:47;;;;;;;27.73;10.55;;;6.70;51.00;;;;;;5085892;27;20162;-74
2022/03/24 02:35:14;;;;;;;25.92;9.80;;;6.50;51.50;;;;;;5087980;27;20051;-73
2022/03/24 02:37:41;;;;;;;35.28;10.80;;;6.60;51.20;;;;;;5056486;27;23374;-74
2022/03/24 02:40:09;;;;;;;31.20;10.07;;;6.60;51.50;;;;;;5066950;27;20055;-74
2022/03/24 02:42:38;;;;;;;29.00;9.77;;;6.50;51.20;;;;;;5052267;27;20039;-74
2022/03/24 02:45:08;;;;;;;33.95;10.45;;;6.30;51.80;;;;;;5059488;27;20055;-74
2022/03/24 02:47:35;;;;;;;31.58;9.40;;;6.20;52.50;;;;;;5085406;27;20048;-74
2022/03/24 02:50:03;;;;;;;32.42;10.63;;;6.30;51.80;;;;;;5067373;27;20054;-74
2022/03/24 02:52:30;;;;;;;32.53;10.13;;;6.30;52.30;;;;;;5068696;27;20039;-74
2022/03/24 02:54:57;;;;;;;28.85;9.93;;;6.10;52.50;;;;;;5085915;27;20050;-74
2022/03/24 02:57:25;;;;;;;31.80;10.00;;;6.10;53.20;;;;;;5057897;27;20088;-74
2022/03/24 02:59:52;;;;;;;31.60;11.35;;;6.20;52.60;;;;;;5056996;27;20043;-74
2022/03/24 03:02:19;;;;;;;35.00;11.52;;;6.00;52.90;;;;;;5052608;27;20062;-74
2022/03/24 03:04:51;;;;;;;34.80;11.10;;;6.10;52.40;;;;;;5075224;27;22545;-74
2022/03/24 03:07:20;;;;;;;39.78;10.60;;;5.80;53.50;;;;;;5056983;27;20749;-74
2022/03/24 03:09:48;;;;;;;35.50;11.43;;;5.90;53.30;;;;;;5074039;27;20043;-74
2022/03/24 03:12:19;;;;;;;31.17;11.80;;;6.00;53.50;;;;;;5082144;27;20058;-74
2022/03/24 03:14:46;;;;;;;36.28;13.32;;;6.10;52.70;;;;;;5085981;27;20043;-74
2022/03/24 03:17:17;;;;;;;32.63;13.80;;;5.50;54.10;;;;;;5051891;27;20055;-74
2022/03/24 03:19:45;;;;;;;34.00;13.23;;;5.20;54.60;;;;;;5066337;27;20051;-74
2022/03/24 03:22:16;;;;;;;35.13;12.57;;;5.40;54.80;;;;;;5072154;27;20051;-74
2022/03/24 03:24:43;;;;;;;37.05;13.60;;;5.20;54.80;;;;;;5067710;27;22295;-73
2022/03/24 03:27:12;;;;;;;36.70;12.07;;;5.40;55.40;;;;;;5067265;27;20643;-74
2022/03/24 03:29:40;;;;;;;39.53;13.38;;;5.70;53.90;;;;;;5067807;27;20608;-74
2022/03/24 03:32:09;;;;;;;35.25;12.75;;;5.70;54.30;;;;;;5086069;27;20066;-74
2022/03/24 03:34:37;;;;;;;38.95;13.70;;;5.70;53.90;;;;;;5047573;27;20047;-74
2022/03/24 03:37:05;;;;;;;42.08;12.50;;;5.90;53.60;;;;;;5085550;27;20039;-74
2022/03/24 03:39:32;;;;;;;34.17;11.90;;;6.00;52.80;;;;;;5067422;27;20038;-74
2022/03/24 03:41:59;;;;;;;33.72;12.98;;;5.70;53.60;;;;;;5068288;27;20179;-74
2022/03/24 03:44:26;;;;;;;33.42;11.93;;;5.30;55.00;;;;;;5064582;27;20897;-74
2022/03/24 03:46:54;;;;;;;35.03;11.68;;;5.50;55.00;;;;;;5069565;27;20543;-74
2022/03/24 03:49:21;;;;;;;38.33;12.52;;;5.50;54.50;;;;;;5085927;27;20794;-74
2022/03/24 03:52:00;;;;;;;33.17;11.70;;;5.40;54.40;;;;;;5075715;27;20985;-74
2022/03/24 03:54:27;;;;;;;33.03;12.48;;;5.60;53.90;;;;;;5086944;27;20049;-74
2022/03/24 03:56:54;;;;;;;33.97;12.95;;;5.70;53.60;;;;;;5067315;27;20931;-74
2022/03/24 03:59:21;;;;;;;40.83;12.35;;;5.90;53.30;;;;;;5056756;27;20047;-73
2022/03/24 04:01:48;;;;;;;39.67;14.55;;;5.90;53.40;;;;;;5067026;27;20043;-74
2022/03/24 04:04:15;;;;;;;34.85;11.75;;;5.90;53.40;;;;;;5072731;27;21809;-74
2022/03/24 04:06:42;;;;;;;35.33;13.48;;;5.70;53.10;;;;;;5054515;27;20100;-74
2022/03/24 04:09:09;;;;;;;36.25;12.68;;;5.60;53.50;;;;;;5067418;27;20720;-74
2022/03/24 04:11:36;;;;;;;34.28;12.02;;;5.70;53.80;;;;;;5065212;27;20149;-74
2022/03/24 04:14:04;;;;;;;39.13;11.60;;;5.80;53.60;;;;;;5067361;27;20192;-74
2022/03/24 04:16:32;;;;;;;34.08;11.82;;;5.80;53.70;;;;;;5047723;27;20616;-74
2022/03/24 04:18:59;;;;;;;32.88;11.77;;;5.40;54.20;;;;;;5073469;27;20323;-74
2022/03/24 04:21:27;;;;;;;30.92;11.75;;;5.40;54.30;;;;;;5056359;27;20048;-74
2022/03/24 04:23:54;;;;;;;36.03;12.45;;;5.70;53.70;;;;;;5082752;27;20032;-74
2022/03/24 04:26:22;;;;;;;34.45;12.68;;;5.80;53.30;;;;;;5085578;27;22499;-75
2022/03/24 04:28:49;;;;;;;36.90;12.07;;;5.80;53.10;;;;;;5048466;27;20062;-74
2022/03/24 04:31:16;;;;;;;33.85;12.45;;;5.90;53.10;;;;;;5048451;27;20043;-74
2022/03/24 04:33:44;;;;;;;39.55;13.02;;;5.80;53.30;;;;;;5065056;27;20043;-74
2022/03/24 04:36:11;;;;;;;35.65;14.35;;;5.80;53.10;;;;;;5066363;27;20174;-74
2022/03/24 04:38:38;;;;;;;37.45;13.65;;;5.60;53.60;;;;;;5066529;27;20141;-74
2022/03/24 04:41:06;;;;;;;35.67;13.48;;;5.50;54.30;;;;;;5079113;27;22582;-74
2022/03/24 04:43:34;;;;;;;30.63;12.90;;;5.40;54.40;;;;;;5052743;27;20039;-74
2022/03/24 04:46:02;;;;;;;36.85;13.38;;;5.40;54.30;;;;;;5065772;27;20063;-74
2022/03/24 04:48:35;;;;;;;38.45;13.98;;;5.50;54.50;;;;;;5073442;28;20059;-74
2022/03/24 04:51:05;;;;;;;33.60;13.38;;;5.30;55.20;;;;;;5067668;27;20545;-75
2022/03/24 04:53:33;;;;;;;35.15;13.35;;;5.00;56.10;;;;;;5074216;27;20100;-75
2022/03/24 04:56:00;;;;;;;37.90;13.63;;;5.00;55.90;;;;;;5067003;28;20048;-74
2022/03/24 04:58:27;;;;;;;38.60;14.55;;;5.30;55.30;;;;;;5080213;27;20051;-74
2022/03/24 05:00:54;;;;;;;50.45;14.63;;;5.10;55.40;;;;;;5084280;27;20047;-74
2022/03/24 05:03:22;;;;;;;36.58;15.07;;;5.10;55.20;;;;;;5065574;27;20058;-74
2022/03/24 05:05:49;;;;;;;42.72;14.73;;;5.00;55.90;;;;;;5081592;27;20046;-75
2022/03/24 05:08:16;;;;;;;39.83;14.35;;;4.90;55.90;;;;;;5081976;27;20047;-75
2022/03/24 05:10:43;;;;;;;43.25;13.85;;;5.00;55.60;;;;;;5065379;28;20180;-75
2022/03/24 05:13:10;;;;;;;38.15;13.32;;;5.10;55.20;;;;;;5066844;28;22480;-75
2022/03/24 05:15:38;;;;;;;46.42;13.93;;;4.70;56.10;;;;;;5066352;28;20051;-75
2022/03/24 05:18:05;;;;;;;44.92;14.45;;;4.80;56.40;;;;;;5068812;28;20192;-75
2022/03/24 05:20:33;;;;;;;39.50;13.23;;;5.10;56.30;;;;;;5066410;28;22490;-75
2022/03/24 05:23:01;;;;;;;42.13;14.50;;;5.30;55.80;;;;;;5048817;28;20115;-75
2022/03/24 05:25:28;;;;;;;35.05;13.38;;;5.10;55.40;;;;;;5083889;28;20047;-74
2022/03/24 05:27:58;;;;;;;38.10;13.82;;;5.30;54.70;;;;;;5067882;28;20055;-74
2022/03/24 05:30:27;;;;;;;46.47;14.38;;;5.40;54.80;;;;;;5084713;28;20055;-74
2022/03/24 05:32:55;;;;;;;36.17;13.13;;;5.30;55.30;;;;;;5083689;28;20048;-74
2022/03/24 05:35:22;;;;;;;38.50;14.25;;;5.30;55.20;;;;;;5065077;28;20169;-74
2022/03/24 05:37:49;;;;;;;38.15;14.90;;;5.30;55.20;;;;;;5070919;28;20105;-74
2022/03/24 05:40:17;;;;;;;40.47;13.75;;;5.30;54.80;;;;;;5052032;28;20047;-74
2022/03/24 05:42:44;;;;;;;43.50;15.30;;;5.40;55.30;;;;;;5052963;27;20047;-74
2022/03/24 05:45:11;;;;;;;45.67;15.07;;;5.50;55.10;;;;;;5068657;27;20059;-74
2022/03/24 05:47:39;;;;;;;62.22;24.90;;;5.60;54.40;;;;;;5087928;27;20131;-74
2022/03/24 05:50:09;;;;;;;42.15;18.90;;;5.80;53.60;;;;;;5073102;27;20100;-75
2022/03/24 05:53:05;;;;;;;46.10;15.68;;;5.80;53.70;;;;;;5071622;27;20102;-74
2022/03/24 05:55:35;;;;;;;44.42;15.32;;;6.00;53.70;;;;;;5065561;27;20048;-74
2022/03/24 05:58:02;;;;;;;44.45;15.75;;;5.90;53.20;;;;;;5052471;27;20051;-74
2022/03/24 06:00:29;;;;;;;41.42;14.60;;;6.10;53.20;;;;;;5085833;27;20040;-74
2022/03/24 06:02:57;;;;;;;42.30;13.52;;;6.10;54.20;;;;;;5068175;27;20035;-74
2022/03/24 06:05:25;;;;;;;41.13;15.18;;;6.10;55.40;;;;;;5051569;27;20043;-74
2022/03/24 06:07:52;;;;;;;43.75;15.60;;;6.30;56.10;;;;;;5050184;27;20097;-74
2022/03/24 06:10:19;;;;;;;67.07;22.08;;;6.30;56.90;;;;;;5071377;27;20047;-75
2022/03/24 06:12:47;;;;;;;69.88;22.98;;;6.30;57.10;;;;;;5067494;27;20047;-75
2022/03/24 06:15:14;;;;;;;64.43;21.35;;;6.30;57.10;;;;;;5089431;27;21710;-74
2022/03/24 06:17:42;;;;;;;57.00;20.05;;;6.40;57.20;;;;;;5070245;27;20160;-74
2022/03/24 06:20:09;;;;;;;57.20;20.95;;;6.60;57.10;;;;;;5087012;27;20048;-74
2022/03/24 06:22:51;;;;;;;53.83;19.95;;;6.90;56.90;;;;;;5067516;27;20081;-75
2022/03/24 06:25:20;;;;;;;47.93;17.53;;;7.10;56.90;;;;;;5068442;27;20044;-75
2022/03/24 06:27:47;;;;;;;54.78;17.52;;;7.30;55.60;;;;;;5071421;27;20043;-74
2022/03/24 06:30:14;;;;;;;75.15;25.63;;;7.30;55.30;;;;;;5067256;27;20212;-75
2022/03/24 06:32:42;;;;;;;60.58;22.85;;;7.50;54.80;;;;;;5085667;27;20035;-74
2022/03/24 06:35:11;;;;;;;69.35;24.58;;;7.60;55.30;;;;;;5069533;27;20043;-74
2022/03/24 06:37:41;;;;;;;69.97;26.77;;;7.70;54.70;;;;;;5068794;27;22260;-74
2022/03/24 06:40:14;;;;;;;59.63;23.88;;;7.90;54.40;;;;;;5068830;27;20497;-74
2022/03/24 06:42:41;;;;;;;54.67;20.15;;;8.10;54.30;;;;;;5086877;27;20520;-74
2022/03/24 06:45:10;;;;;;;49.85;22.50;;;8.10;54.00;;;;;;5084416;27;20178;-74
2022/03/24 06:47:39;;;;;;;54.58;23.15;;;8.20;53.80;;;;;;5071057;27;20047;-75
2022/03/24 06:50:12;;;;;;;46.65;22.58;;;8.40;53.80;;;;;;5069693;27;20062;-74
2022/03/24 06:52:43;;;;;;;46.63;19.23;;;8.40;53.60;;;;;;5071433;27;20043;-74
2022/03/24 06:55:14;;;;;;;37.53;16.23;;;8.50;53.70;;;;;;5070377;27;20170;-74
2022/03/24 06:57:42;;;;;;;33.90;15.65;;;8.70;53.50;;;;;;5049678;27;20537;-75
2022/03/24 07:00:13;;;;;;;30.95;13.13;;;8.70;52.80;;;;;;5071198;27;20132;-75
2022/03/24 07:02:43;;;;;;;39.13;13.55;;;8.90;52.30;;;;;;5046980;27;20067;-75
2022/03/24 07:05:11;;;;;;;24.20;11.52;;;9.00;52.50;;;;;;5066544;27;20351;-75
2022/03/24 07:07:39;;;;;;;27.48;12.18;;;9.10;51.50;;;;;;5068029;27;20058;-74
2022/03/24 07:10:07;;;;;;;29.00;11.63;;;9.30;50.90;;;;;;5064887;27;20044;-74
2022/03/24 07:12:35;;;;;;;36.25;17.85;;;9.40;50.50;;;;;;5046607;27;20086;-74
2022/03/24 07:15:03;;;;;;;31.92;14.00;;;9.40;50.70;;;;;;5085500;27;20051;-75
2022/03/24 07:17:30;;;;;;;29.75;11.07;;;9.50;50.40;;;;;;5086709;27;22372;-75
2022/03/24 07:19:57;;;;;;;31.40;13.02;;;9.50;50.50;;;;;;5056920;27;20182;-74
2022/03/24 07:22:24;;;;;;;28.63;11.55;;;9.50;51.30;;;;;;5084371;27;20050;-75
2022/03/24 07:24:51;;;;;;;24.70;11.35;;;9.70;51.20;;;;;;5059245;27;20169;-74
2022/03/24 07:27:19;;;;;;;30.83;12.20;;;9.90;50.30;;;;;;5071183;27;20126;-75
2022/03/24 07:29:46;;;;;;;28.60;10.65;;;10.00;50.20;;;;;;5051361;28;20047;-74
2022/03/24 07:32:13;;;;;;;29.45;11.32;;;10.20;48.90;;;;;;5054169;27;20133;-74
2022/03/24 07:34:40;;;;;;;27.90;11.77;;;10.50;49.40;;;;;;5067840;27;20847;-74
2022/03/24 07:37:08;;;;;;;31.23;10.90;;;10.70;48.90;;;;;;5049123;27;20128;-74
2022/03/24 07:39:35;;;;;;;21.20;10.48;;;11.00;47.90;;;;;;5050250;27;20131;-75
2022/03/24 07:42:02;;;;;;;26.50;10.23;;;11.30;47.10;;;;;;5069335;27;20054;-74
2022/03/24 07:44:29;;;;;;;22.13;9.70;;;11.40;46.90;;;;;;5063853;27;20120;-75
2022/03/24 07:46:56;;;;;;;21.98;9.95;;;11.70;45.60;;;;;;5082623;27;20052;-75
2022/03/24 07:49:23;;;;;;;24.33;10.02;;;11.90;45.20;;;;;;5067473;27;20039;-75
2022/03/24 07:51:50;;;;;;;23.73;10.05;;;12.10;45.80;;;;;;5068387;27;20063;-75
2022/03/24 07:54:39;;;;;;;30.10;10.30;;;12.10;45.80;;;;;;5065662;27;20197;-75
2022/03/24 07:57:06;;;;;;;22.90;10.00;;;12.20;45.30;;;;;;5049897;27;20059;-75
2022/03/24 07:59:38;;;;;;;28.23;11.48;;;12.40;45.00;;;;;;5067823;27;22385;-76
2022/03/24 08:02:07;;;;;;;22.35;9.25;;;12.40;45.30;;;;;;5057019;27;20058;-75
2022/03/24 08:04:34;;;;;;;21.88;9.93;;;12.60;44.60;;;;;;5087415;27;20046;-75
2022/03/24 08:07:01;;;;;;;20.95;6.72;;;12.60;44.60;;;;;;5074790;27;20183;-76
2022/03/24 08:09:32;;;;;;;17.83;7.93;;;12.90;43.40;;;;;;5049702;27;20051;-75
2022/03/24 08:11:59;;;;;;;16.10;5.88;;;13.20;41.60;;;;;;5065436;27;20140;-76
2022/03/24 08:14:27;;;;;;;14.15;5.72;;;13.80;38.40;;;;;;5072386;27;20059;-76
2022/03/24 08:16:54;;;;;;;13.65;4.97;;;13.90;38.90;;;;;;5064435;27;20167;-76
2022/03/24 08:19:21;;;;;;;17.15;5.28;;;14.10;38.20;;;;;;5048787;27;20048;-76
2022/03/24 08:21:48;;;;;;;10.82;5.05;;;14.40;37.40;;;;;;5081613;27;20050;-76
2022/03/24 08:24:15;;;;;;;19.25;5.97;;;14.50;37.50;;;;;;5081412;27;20212;-76
2022/03/24 08:26:42;;;;;;;17.48;6.38;;;14.60;36.80;;;;;;5065556;27;20047;-75
2022/03/24 08:29:09;;;;;;;18.10;5.47;;;14.70;36.90;;;;;;5091180;27;20055;-75
2022/03/24 08:31:36;;;;;;;12.48;5.65;;;14.90;35.60;;;;;;5050402;27;20189;-76
2022/03/24 08:34:03;;;;;;;13.85;6.78;;;15.10;36.30;;;;;;5081693;27;20047;-76
2022/03/24 08:36:31;;;;;;;17.33;6.75;;;15.30;35.60;;;;;;5081354;27;20047;-76
2022/03/24 08:38:59;;;;;;;13.27;6.05;;;15.30;36.10;;;;;;5065752;27;21216;-76
2022/03/24 08:41:26;;;;;;;12.07;5.78;;;15.40;35.50;;;;;;5083864;27;20047;-76
2022/03/24 08:43:53;;;;;;;13.98;6.03;;;15.80;35.00;;;;;;5067643;27;20081;-76
2022/03/24 08:46:24;;;;;;;12.48;5.72;;;15.90;34.40;;;;;;5081047;27;21201;-76
2022/03/24 08:48:53;;;;;;;16.77;6.50;;;16.00;36.10;;;;;;5070917;27;20066;-76
2022/03/24 08:51:22;;;;;;;12.85;5.88;;;16.30;33.40;;;;;;5067198;27;20070;-76
2022/03/24 08:53:49;;;;;;;11.15;5.78;;;16.70;32.30;;;;;;5049534;27;20051;-76
2022/03/24 08:56:16;;;;;;;12.02;5.85;;;16.90;31.70;;;;;;5058507;28;20138;-76
2022/03/24 08:58:44;;;;;;;14.30;5.75;;;16.80;32.60;;;;;;5049500;27;20104;-76
2022/03/24 09:01:12;;;;;;;11.27;5.07;;;17.10;31.80;;;;;;5064258;27;20043;-76
2022/03/24 09:03:39;;;;;;;12.15;5.38;;;17.20;31.60;;;;;;5066103;28;20043;-75
2022/03/24 09:06:08;;;;;;;12.50;4.70;;;17.30;31.00;;;;;;5067685;28;20518;-75
2022/03/24 09:08:35;;;;;;;11.88;5.35;;;17.60;31.70;;;;;;5072930;28;22116;-76
2022/03/24 09:11:02;;;;;;;13.88;5.63;;;17.50;32.00;;;;;;5067064;28;20196;-75
2022/03/24 09:13:29;;;;;;;12.27;4.88;;;17.60;32.60;;;;;;5083947;28;20177;-76
2022/03/24 09:15:56;;;;;;;11.77;4.70;;;17.70;32.60;;;;;;5049382;27;20715;-76
2022/03/24 09:18:24;;;;;;;14.30;5.20;;;17.60;31.40;;;;;;5058204;27;20051;-76
2022/03/24 09:20:51;;;;;;;10.32;5.78;;;17.90;31.10;;;;;;5069051;27;20043;-76
2022/03/24 09:23:18;;;;;;;13.00;6.22;;;17.80;31.20;;;;;;5084305;27;20046;-77
2022/03/24 09:25:45;;;;;;;8.98;5.40;;;18.20;30.10;;;;;;5076143;27;20043;-75
2022/03/24 09:28:12;;;;;;;11.48;4.50;;;18.10;29.80;;;;;;5070823;27;20164;-75
2022/03/24 09:30:41;;;;;;;12.00;4.82;;;17.80;33.00;;;;;;5088458;27;21115;-76
2022/03/24 09:33:09;;;;;;;14.00;6.03;;;17.70;32.60;;;;;;5052442;27;22409;-75
2022/03/24 09:35:36;;;;;;;12.43;6.03;;;17.70;32.10;;;;;;5070282;27;20140;-77
2022/03/24 09:38:03;;;;;;;14.40;5.43;;;18.30;31.20;;;;;;5086771;27;20786;-76
2022/03/24 09:40:30;;;;;;;10.55;5.75;;;18.20;31.20;;;;;;5051449;27;20185;-77
2022/03/24 09:43:00;;;;;;;14.38;6.65;;;18.30;30.50;;;;;;5050727;27;20126;-77
2022/03/24 09:45:28;;;;;;;13.77;7.00;;;18.30;31.60;;;;;;5046740;28;22371;-77
2022/03/24 09:47:55;;;;;;;14.50;5.85;;;18.30;30.90;;;;;;5055856;28;20154;-78
2022/03/24 09:50:24;;;;;;;13.75;6.22;;;18.50;30.80;;;;;;5050882;28;22467;-78
2022/03/24 09:52:53;;;;;;;15.55;5.63;;;18.40;31.30;;;;;;5048974;28;20083;-78
2022/03/24 09:55:20;;;;;;;9.75;5.07;;;18.40;30.50;;;;;;5055525;28;20055;-76
2022/03/24 09:57:48;;;;;;;11.07;5.38;;;18.60;29.70;;;;;;5046000;28;20044;-75
2022/03/24 10:00:35;;;;;;;9.07;5.10;;;19.00;28.70;;;;;;5045493;28;22344;-75
2022/03/24 10:03:07;;;;;;;13.93;5.43;;;19.20;28.70;;;;;;5039641;28;22450;-75
2022/03/24 10:05:35;;;;;;;10.00;4.95;;;19.30;29.00;;;;;;5044987;28;20048;-75
2022/03/24 10:08:07;;;;;;;9.20;4.95;;;19.20;29.20;;;;;;5028688;28;20137;-76
2022/03/24 10:10:36;;;;;;;9.80;4.63;;;19.50;29.10;;;;;;5033410;28;20060;-76
2022/03/24 10:13:04;;;;;;;13.40;4.88;;;19.40;29.60;;;;;;5040738;28;20059;-76
2022/03/24 10:15:31;;;;;;;7.00;4.03;;;19.50;29.70;;;;;;5043641;28;20167;-76
2022/03/24 10:18:00;;;;;;;10.30;3.92;;;19.60;29.70;;;;;;5036518;28;20055;-76
2022/03/24 10:20:30;;;;;;;9.85;4.35;;;19.70;28.70;;;;;;5036422;28;20537;-76
2022/03/24 10:23:00;;;;;;;7.20;4.00;;;19.70;29.60;;;;;;5046273;28;20050;-76
2022/03/24 10:25:33;;;;;;;11.73;4.15;;;19.70;28.90;;;;;;5053595;28;20121;-75
2022/03/24 10:28:05;;;;;;;6.78;4.18;;;19.70;28.80;;;;;;5060518;27;20052;-76
2022/03/24 10:31:05;;;;;;;6.88;3.58;;;19.90;28.80;;;;;;5043518;28;20439;-76
2022/03/24 10:33:40;;;;;;;8.50;4.00;;;19.80;28.90;;;;;;5000390;28;20049;-74
2022/03/24 10:36:09;;;;;;;9.88;4.70;;;19.90;28.40;;;;;;5042298;28;20092;-75
2022/03/24 10:38:42;;;;;;;9.20;4.47;;;19.90;28.90;;;;;;5042378;28;20109;-74
2022/03/24 10:41:20;;;;;;;8.32;3.95;;;20.10;28.50;;;;;;5048027;28;20059;-75
2022/03/24 10:43:49;;;;;;;8.40;3.90;;;20.20;28.60;;;;;;5042538;28;20106;-74
2022/03/24 10:46:22;;;;;;;10.93;4.35;;;20.30;27.50;;;;;;5064661;28;20047;-74
2022/03/24 10:48:51;;;;;;;12.50;4.20;;;20.50;27.70;;;;;;5055764;27;20064;-74
2022/03/24 10:51:31;;;;;;;5.22;3.70;;;20.40;28.80;;;;;;5063277;28;22451;-74
2022/03/24 10:54:21;;;;;;;9.15;4.38;;;20.40;28.00;;;;;;5056271;28;20051;-74
2022/03/24 10:57:12;;;;;;;11.23;3.33;;;20.50;27.80;;;;;;5069349;28;20082;-75
2022/03/24 10:59:43;;;;;;;7.18;3.42;;;20.50;28.50;;;;;;5058640;28;20205;-75
2022/03/24 11:02:13;;;;;;;8.05;3.30;;;20.70;27.90;;;;;;5062253;27;20051;-74
2022/03/24 11:04:41;;;;;;;8.85;3.08;;;20.90;27.00;;;;;;5054362;28;20063;-76
2022/03/24 11:07:09;;;;;;;7.72;3.58;;;21.00;27.40;;;;;;5084730;27;20116;-76
2022/03/24 11:09:36;;;;;;;36.13;5.70;;;20.90;27.40;;;;;;5057460;28;20044;-75
2022/03/24 11:12:27;;;;;;;14.25;4.60;;;21.00;27.60;;;;;;5064379;28;22449;-75
2022/03/24 11:15:00;;;;;;;6.88;3.85;;;20.90;27.60;;;;;;5072514;28;20082;-76
2022/03/24 11:17:30;;;;;;;6.22;3.72;;;21.10;26.40;;;;;;5071196;28;20141;-75
2022/03/24 11:20:15;;;;;;;8.35;3.70;;;21.10;27.20;;;;;;5062930;28;20044;-75
2022/03/24 11:23:01;;;;;;;10.20;4.28;;;21.10;26.20;;;;;;5082504;27;20055;-75
2022/03/24 11:25:29;;;;;;;6.72;3.35;;;21.00;26.30;;;;;;5064884;28;20175;-75
2022/03/24 11:27:57;;;;;;;7.18;3.40;;;21.10;26.80;;;;;;5067497;28;20074;-76
2022/03/24 11:30:25;;;;;;;8.80;3.53;;;21.20;26.90;;;;;;5066177;28;21046;-76
2022/03/24 11:32:54;;;;;;;8.07;3.75;;;21.20;26.80;;;;;;5058865;28;20080;-77
2022/03/24 11:35:22;;;;;;;7.22;3.90;;;21.20;26.80;;;;;;5070978;28;20051;-78
2022/03/24 11:37:55;;;;;;;8.23;4.20;;;21.30;26.50;;;;;;5084394;27;20044;-78
2022/03/24 11:40:28;;;;;;;7.30;4.22;;;21.40;26.20;;;;;;5058258;28;22545;-76
2022/03/24 11:43:07;;;;;;;6.70;3.58;;;21.40;26.50;;;;;;5051066;28;20633;-76
2022/03/24 11:45:58;;;;;;;6.35;3.78;;;21.30;26.70;;;;;;5061272;28;20079;-76
2022/03/24 11:48:37;;;;;;;8.70;3.83;;;21.50;26.10;;;;;;5076946;27;20055;-76
2022/03/24 11:51:21;;;;;;;5.82;3.70;;;21.50;26.90;;;;;;5062353;28;20131;-76
2022/03/24 11:54:05;;;;;;;6.40;3.92;;;21.50;27.00;;;;;;5080428;27;20050;-76
2022/03/24 11:56:33;;;;;;;9.32;4.47;;;21.60;26.50;;;;;;5067080;28;20047;-76
2022/03/24 11:59:00;;;;;;;6.55;3.60;;;21.80;26.50;;;;;;5048166;28;20043;-76
2022/03/24 12:01:32;;;;;;;6.50;3.85;;;21.70;25.80;;;;;;5046979;28;21057;-76
2022/03/24 12:04:11;;;;;;;7.22;3.70;;;21.80;25.90;;;;;;5066754;28;20764;-77
2022/03/24 12:06:42;;;;;;;6.47;3.60;;;21.70;26.10;;;;;;5069908;28;20056;-76
2022/03/24 12:09:16;;;;;;;6.75;3.63;;;21.80;26.10;;;;;;5067078;27;20056;-78
2022/03/24 12:12:02;;;;;;;6.15;3.28;;;21.90;26.10;;;;;;5062966;28;20052;-76
2022/03/24 12:14:32;;;;;;;8.18;3.83;;;21.90;26.00;;;;;;5067608;28;20044;-77
2022/03/24 12:17:22;;;;;;;5.15;3.03;;;21.90;26.60;;;;;;5046658;28;20075;-76
2022/03/24 12:19:53;;;;;;;6.30;3.28;;;22.00;25.70;;;;;;5066620;28;20066;-77
2022/03/24 12:22:26;;;;;;;8.50;3.30;;;22.00;25.60;;;;;;5064902;28;20052;-77
2022/03/24 12:25:14;;;;;;;6.50;3.47;;;22.10;25.70;;;;;;5061846;28;20162;-78
2022/03/24 12:28:17;;;;;;;10.77;4.88;;;22.00;25.70;;;;;;5066234;28;20052;-76
2022/03/24 12:31:04;;;;;;;5.40;3.63;;;22.00;25.20;;;;;;5058514;28;22480;-76
2022/03/24 12:33:39;;;;;;;7.07;4.00;;;21.90;25.00;;;;;;5064633;28;20051;-77
2022/03/24 12:36:07;;;;;;;12.00;4.38;;;22.00;25.20;;;;;;5067508;28;20052;-76
2022/03/24 12:38:34;;;;;;;6.80;3.88;;;22.00;25.40;;;;;;5081499;27;20152;-77
2022/03/24 12:41:07;;;;;;;7.28;3.25;;;22.00;25.40;;;;;;5065625;28;20048;-77
2022/03/24 12:43:56;;;;;;;6.45;3.85;;;22.00;25.10;;;;;;5070686;27;20055;-78
2022/03/24 12:46:43;;;;;;;5.95;3.92;;;22.00;25.30;;;;;;5052253;27;20044;-77
2022/03/24 12:49:11;;;;;;;6.97;4.25;;;22.00;25.40;;;;;;5068697;27;20484;-77